Tiempo atmosférico en la estación meteorológica de Valleseco, Las Palmas (900 m.)



Fecha
DESCASC
Temp. máxima en grados centígrados (hora)
DESCASC
Temp. mínima en grados centígrados (hora)
DESCASC
Temp. media en grados centígrados
DESCASC
Racha de viento máxima en m/sg (hora)
DESCASC
Velocidad máxima media en intervalos de 10 minutos(hora)
DESCASC
Precipitaciones diarias en mm
DESCASC
Precipitaciones de 00:00 a 06:00 en mm
DESCASC
Precipitaciones de 06:00 a 12:00 en mm
DESCASC
Precipitaciones de 12:00 a 18:00 en mm
DESCASC
Precipitaciones de 18:00 a 24:00 en mm
DESCASC
14-02-2019 24.1 (15:00) 14.9 (00:00) 19.5 16.67 (23:10) 10 (23:10) 0 0 0 0 0
05-02-2019 18.2 (14:50) 8.9 (00:00) 13.6 15.83 (10:30) 10 (20:20) 0 0 0 0 0
15-02-2019 16.5 (00:00) 8.1 (00:00) 12.3 14.72 (00:10) 8.89 (00:10) 0 0 0 0 0
11-02-2019 24.6 (17:30) 13.1 (00:00) 18.9 14.72 (04:30) 9.44 (05:40) 0 0 0 0 0
22-02-2019 23.7 (15:40) 11.5 (00:00) 17.6 14.17 (10:20) 9.17 (13:00) 0 0 0 0 0
13-02-2019 26.4 (17:50) 14.7 (00:00) 20.5 13.61 (08:00) 7.5 (08:00) 0 0 0 0 0
10-02-2019 20.6 (12:10) 11.2 (00:00) 15.9 13.61 (09:30) 9.17 (09:30) 0 0 0 0 0
12-02-2019 25.7 (17:40) 14 (00:00) 19.9 12.78 (07:50) 8.33 (07:50) 0 0 0 0 0
06-02-2019 18.6 (13:30) 8.8 (00:00) 13.7 12.78 (10:10) 8.89 (10:20) 0 0 0 0 0
16-02-2019 14.7 (16:10) 8.3 (00:00) 11.5 11.67 (00:20) 6.39 (00:20) 0 0 0 0 0
04-02-2019 18.9 (14:20) 7.7 (00:00) 13.3 11.67 (22:00) 7.5 (20:00) 0 0 0 0 0
20-02-2019 16.1 (14:00) 6.1 (00:00) 11.1 10.28 (11:10) 6.39 (11:10) 0 0 0 0 0
08-02-2019 17.6 (17:40) 4.7 (00:00) 11.2 9.72 (12:10) 7.5 (09:10) 0 0 0 0 0
01-02-2019 16.2 (14:30) 8.5 (00:00) 12.4 9.72 (19:40) 6.11 (19:10) 3.6 0 0 0.6 3
02-02-2019 11.7 (02:30) 8.1 (00:00) 9.9 9.17 (02:40) 5.28 (02:40) 23 20 2.4 0.2 0.4
18-02-2019 11.7 (09:40) 6.7 (00:00) 9.2 9.17 (14:30) 5.28 (13:30) 0 0 0 0 0
21-02-2019 21.9 (17:00) 6.3 (00:00) 14.1 9.17 (02:30) 7.5 (02:30) 0 0 0 0 0
07-02-2019 17 (14:00) 6.4 (00:00) 11.7 8.61 (22:40) 7.22 (23:30) 0 0 0 0 0
17-02-2019 16.8 (15:40) 6.7 (00:00) 11.7 8.61 (13:50) 5 (11:00) 0 0 0 0 0
24-01-2019 11.9 (13:30) 8.1 (00:00) 10 8.33 (08:20) 3.33 (06:20) 0 0 0 0 0
03-02-2019 11.9 (14:40) 7.8 (00:00) 9.8 8.06 (04:10) 3.89 (22:40) 0 0 0 0 0
09-02-2019 20.9 (14:40) 4.8 (00:00) 12.8 7.22 (03:10) 5.56 (02:20) 0 0 0 0 0
30-01-2019 12.4 (12:40) 8.1 (00:00) 10.3 7.22 (19:40) 3.61 (20:20) 3.6 1.8 0.8 0 1
19-02-2019 13 (16:10) 6.7 (00:00) 9.8 7.22 (11:40) 3.61 (19:10) 0 0 0 0 0
31-01-2019 13 (14:10) 7.8 (00:00) 10.4 6.94 (23:20) 4.44 (23:50) 0.6 0.6 0 0 0
28-01-2019 13.9 (13:50) 8.8 (00:00) 11.3 6.67 (06:40) 3.61 (23:20) 0 0 0 0 0
27-01-2019 16 (15:20) 8.1 (00:00) 12.1 5.56 (20:40) 3.06 (15:30) 0 0 0 0 0
29-01-2019 12.7 (15:20) 8 (00:00) 10.3 5 (16:00) 3.06 (00:10) -- 0 0.2 0.4 --
25-01-2019 13.6 (12:20) 9.1 (00:00) 11.4 4.44 (01:40) 2.22 (12:50) 0.2 0 0 0.2 0
26-01-2019 13.1 (13:40) 7.5 (00:00) 10.3 3.89 (04:40) 2.78 (22:10) 0 0 0 0 0

Gráficas

Temp. máximas Temp. mínimas Temp. medias Precipitaciones Rachas de viento máximas Velocidades máximas media en intervalos de 10 minutos

Datos horarios

Fecha y hora oficial Temperatura (ºC) Velocidad del viento (km/h) Dirección del viento Racha (km/h) Dirección de racha Precipitación (mm) Presión (hPa) Tendencia (hPa) Humedad (%)
2019-02-22 23:00:00 14 16 Sudeste 23 Sudeste 0 -- -- 25
2019-02-22 22:00:00 16.8 2 Oeste 6 Norte 0 -- -- 24
2019-02-22 21:00:00 16.4 2 Sudeste 6 Este 0 -- -- 24
2019-02-22 20:00:00 16.6 0 Calma 6 Sur 0 -- -- 25
2019-02-22 19:00:00 17 4 Sudoeste 6 Sur 0 -- -- 31
2019-02-22 18:00:00 21.1 4 Norte 11 Noroeste 0 -- -- 26
2019-02-22 17:00:00 22.3 6 Noroeste 14 Noroeste 0 -- -- 23
2019-02-22 16:00:00 23.6 5 Noroeste 24 Este 0 -- -- 22
2019-02-22 15:00:00 22.6 17 Sudeste 32 Sudeste 0 -- -- 22
2019-02-22 14:00:00 22.5 20 Sudeste 44 Sudeste 0 -- -- 24
2019-02-22 13:00:00 22.1 33 Sudeste 45 Sudeste 0 -- -- 26
2019-02-22 12:00:00 21.8 30 Sudeste 50 Sudeste 0 -- -- 25
2019-02-22 11:00:00 21.9 27 Sudeste 51 Sudeste 0 -- -- 25
2019-02-22 10:00:00 19.4 32 Sudeste 47 Sudeste 0 -- -- 23
2019-02-22 09:00:00 16.2 30 Sudeste 45 Sudeste 0 -- -- 31
2019-02-22 08:00:00 13.4 24 Sudeste 40 Sudeste 0 -- -- 38
2019-02-22 07:00:00 11.8 21 Sudeste 41 Sudeste 0 -- -- 41
2019-02-22 06:00:00 12.5 28 Sudeste 43 Sudeste 0 -- -- 39
2019-02-22 05:00:00 12.2 27 Sudeste 37 Sudeste 0 -- -- 39
2019-02-22 04:00:00 12.3 25 Sudeste 31 Sudeste 0 -- -- 37
2019-02-22 03:00:00 12.5 17 Sudeste 34 Sudeste 0 -- -- 37
2019-02-22 02:00:00 12.5 14 Sudeste 29 Sudeste 0 -- -- 33
2019-02-22 01:00:00 11.6 9 Sudeste 23 Sudeste 0 -- -- 39
2019-02-22 00:00:00 11.6 17 Sudeste 28 Sudeste 0 -- -- 40
2019-02-21 23:00:00 13.6 4 Sur 11 Sur 0 -- -- 40
2019-02-21 22:00:00 12.7 4 Sudoeste 6 Oeste 0 -- -- 63
2019-02-21 21:00:00 12.9 3 Sudoeste 5 Oeste 0 -- -- 64
2019-02-21 20:00:00 12.9 2 Sur 6 Sudoeste 0 -- -- 70
2019-02-21 19:00:00 13.4 2 Norte 6 Sudeste 0 -- -- 80
2019-02-21 18:00:00 19.8 5 Sudeste 14 Sudeste 0 -- -- 47
2019-02-21 17:00:00 21.9 5 Sudeste 10 Este 0 -- -- 46
2019-02-21 16:00:00 20.3 4 Sudeste 14 Sudeste 0 -- -- 52
2019-02-21 15:00:00 18.3 6 Sudeste 22 Este 0 -- -- 63
2019-02-21 14:00:00 17.1 11 Este 27 Sudeste 0 -- -- 70
2019-02-21 13:00:00 15.1 15 Este 22 Este 0 -- -- 79
2019-02-21 12:00:00 14.9 4 Noroeste 15 Este 0 -- -- 72
2019-02-21 11:00:00 15.3 9 Este 19 Sudeste 0 -- -- 71
2019-02-21 10:00:00 13.4 10 Este 17 Este 0 -- -- 75
2019-02-21 09:00:00 10.8 9 Este 14 Este 0 -- -- 89
2019-02-21 08:00:00 6.8 9 Sudeste 13 Este 0 -- -- 99
2019-02-21 07:00:00 6.7 10 Sudeste 22 Sudeste 0 -- -- 98
2019-02-21 06:00:00 6.8 18 Sudeste 23 Sudeste 0 -- -- 98
2019-02-21 05:00:00 6.9 18 Sudeste 24 Sudeste 0 -- -- 98
2019-02-21 04:00:00 6.9 17 Sudeste 27 Sudeste 0 -- -- 98
2019-02-21 03:00:00 7.2 23 Sudeste 33 Sudeste 0 -- -- 97
2019-02-21 02:00:00 7.2 24 Sudeste 28 Sudeste 0 -- -- 97
2019-02-21 01:00:00 8 13 Sudeste 27 Sudeste 0 -- -- 98
2019-02-21 00:00:00 7.5 15 Sudeste 22 Sudeste 0 -- -- 98
2019-02-20 23:00:00 9.1 13 Sudeste 23 Sudeste 0 -- -- 98
2019-02-20 22:00:00 9.4 9 Sudeste 17 Sudeste 0 -- -- 98
2019-02-20 21:00:00 9.4 7 Sudeste 17 Este 0 -- -- 98
2019-02-20 20:00:00 9.5 8 Este 16 Este 0 -- -- 98
2019-02-20 19:00:00 9.5 8 Este 15 Este 0 -- -- 96
2019-02-20 18:00:00 10 9 Este 15 Sudeste 0 -- -- 92
2019-02-20 17:00:00 10.3 8 Este 19 Este 0 -- -- 89
2019-02-20 16:00:00 11.1 10 Este 19 Este 0 -- -- 82
2019-02-20 15:00:00 12.9 14 Este 23 Este 0 -- -- 71
2019-02-20 14:00:00 16.1 12 Este 22 Este 0 -- -- 61
2019-02-20 13:00:00 15.3 9 Este 27 Sudeste 0 -- -- 62
2019-02-20 12:00:00 14.7 17 Sudeste 37 Sudeste 0 -- -- 63
2019-02-20 11:00:00 11.2 22 Sudeste 32 Sudeste 0 -- -- 76
2019-02-20 10:00:00 9.4 16 Sudeste 25 Sudeste 0 -- -- 82
2019-02-20 09:00:00 8.3 11 Sudeste 15 Sudeste 0 -- -- 90
2019-02-20 08:00:00 7.6 3 Sudeste 12 Sudeste 0 -- -- 87
2019-02-20 07:00:00 7.3 6 Sudeste 13 Sudeste 0 -- -- 87
2019-02-20 06:00:00 6.8 6 Este 14 Este 0 -- -- 87
2019-02-20 05:00:00 6.8 5 Nordeste 16 Nordeste 0 -- -- 86
2019-02-20 04:00:00 7.6 5 Norte 13 Norte 0 -- -- 89
2019-02-20 03:00:00 7.5 3 Nordeste 10 Sur 0 -- -- 89
2019-02-20 02:00:00 7.1 6 Sudeste 11 Nordeste 0 -- -- 90
2019-02-20 01:00:00 7.8 3 Nordeste 15 Norte 0 -- -- 92
2019-02-20 00:00:00 8 7 Nordeste 14 Nordeste 0 -- -- 94
2019-02-19 23:00:00 7.6 4 Norte 12 Noroeste 0 -- -- 93
2019-02-19 22:00:00 7.9 5 Norte 15 Norte 0 -- -- 96
2019-02-19 21:00:00 7.9 6 Norte 14 Noroeste 0 -- -- 95
2019-02-19 20:00:00 7.8 6 Noroeste 23 Noroeste 0 -- -- 96
2019-02-19 19:00:00 8.5 8 Norte 20 Norte 0 -- -- 91
2019-02-19 18:00:00 9.4 6 Norte 18 Norte 0 -- -- 82
2019-02-19 17:00:00 10.4 10 Norte 19 Norte 0 -- -- 73
2019-02-19 16:00:00 11.5 9 Norte 25 Norte 0 -- -- 69
2019-02-19 15:00:00 11.2 10 Norte 23 Norte 0 -- -- 73
2019-02-19 14:00:00 11.1 11 Norte 23 Norte 0 -- -- 80
2019-02-19 13:00:00 11.6 9 Norte 22 Norte 0 -- -- 72
2019-02-19 12:00:00 11.5 10 Norte 26 Norte 0 -- -- 71
2019-02-19 11:00:00 10.1 7 Norte 22 Norte 0 -- -- 78
2019-02-19 10:00:00 9.2 13 Norte 23 Norte 0 -- -- 89
2019-02-19 09:00:00 8.2 5 Norte 15 Norte 0 -- -- 93
2019-02-19 08:00:00 7.3 8 Nordeste 18 Nordeste 0 -- -- 98
2019-02-19 07:00:00 6.8 6 Nordeste 15 Noroeste 0 -- -- 98
2019-02-19 06:00:00 7.5 6 Norte 19 Norte 0 -- -- 98
2019-02-19 05:00:00 7.4 4 Norte 14 Norte 0 -- -- 97
2019-02-19 04:00:00 7 5 Noroeste 19 Norte 0 -- -- 95
2019-02-19 03:00:00 7.2 8 Norte 15 Noroeste 0 -- -- 95
2019-02-19 02:00:00 7.1 7 Norte 19 Norte 0 -- -- 95
2019-02-19 01:00:00 7.3 7 Norte 21 Norte 0 -- -- 96
2019-02-19 00:00:00 7 10 Norte 22 Nordeste 0 -- -- 94
2019-02-18 23:00:00 7.6 9 Norte 20 Noroeste 0 -- -- 97
2019-02-18 22:00:00 7 12 Norte 23 Norte 0 -- -- 96
2019-02-18 21:00:00 7.6 8 Norte 23 Norte 0 -- -- 98
2019-02-18 20:00:00 8 13 Norte 22 Norte 0 -- -- 98
2019-02-18 19:00:00 7.9 6 Noroeste 28 Norte 0 -- -- 97
2019-02-18 18:00:00 8.4 17 Norte 29 Noroeste 0 -- -- 97
2019-02-18 17:00:00 8.4 13 Norte 24 Noroeste 0 -- -- 98
2019-02-18 16:00:00 8.7 11 Noroeste 27 Noroeste 0 -- -- 98
2019-02-18 15:00:00 9.8 15 Norte 33 Norte 0 -- -- 98
2019-02-18 14:00:00 10 16 Norte 32 Norte 0 -- -- 97
2019-02-18 13:00:00 10.5 15 Norte 27 Norte 0 -- -- 97
2019-02-18 12:00:00 11.4 6 Norte 27 Norte 0 -- -- 97
2019-02-18 11:00:00 10.6 2 Nordeste 8 Oeste 0 -- -- 94
2019-02-18 10:00:00 11.3 5 Oeste 18 Oeste 0 -- -- 86
2019-02-18 09:00:00 9.7 11 Oeste 18 Oeste 0 -- -- 86
2019-02-18 08:00:00 8.4 10 Oeste 16 Oeste 0 -- -- 88
2019-02-18 07:00:00 8.1 10 Oeste 17 Oeste 0 -- -- 70
2019-02-18 06:00:00 7.9 7 Oeste 12 Oeste 0 -- -- 90
2019-02-18 05:00:00 8.1 4 Oeste 10 Oeste 0 -- -- 91
2019-02-18 04:00:00 9.4 3 Noroeste 7 Sudeste 0 -- -- 69
2019-02-18 03:00:00 9.7 3 Sur 9 Este 0 -- -- 43
2019-02-18 02:00:00 9.8 3 Este 11 Sur 0 -- -- 43
2019-02-18 01:00:00 8.4 2 Sudeste 8 Nordeste 0 -- -- 75
2019-02-18 00:00:00 9.4 4 Norte 10 Nordeste 0 -- -- 77
2019-02-17 23:00:00 9.5 4 Sudeste 9 Sur 0 -- -- 43
2019-02-17 22:00:00 10 3 Noroeste 11 Norte 0 -- -- 49
2019-02-17 21:00:00 10 2 Sur 5 Sur 0 -- -- 51
2019-02-17 20:00:00 9.2 5 Nordeste 8 Nordeste 0 -- -- 63
2019-02-17 19:00:00 10.8 3 Nordeste 10 Este 0 -- -- 69
2019-02-17 18:00:00 13.4 7 Este 15 Este 0 -- -- 47
2019-02-17 17:00:00 15.2 12 Este 19 Sudeste 0 -- -- 42
2019-02-17 16:00:00 16.2 8 Nordeste 26 Sudeste 0 -- -- 43
2019-02-17 15:00:00 16.5 10 Este 24 Este 0 -- -- 41
2019-02-17 14:00:00 16.3 16 Este 31 Este 0 -- -- 43
2019-02-17 13:00:00 16 16 Este 30 Este 0 -- -- 48
2019-02-17 12:00:00 16.1 13 Este 27 Este 0 -- -- 46
2019-02-17 11:00:00 15.1 18 Este 30 Sudeste 0 -- -- 44
2019-02-17 10:00:00 13.9 13 Este 22 Sudeste 0 -- -- 49
2019-02-17 09:00:00 11 11 Sudeste 21 Este 0 -- -- 52
2019-02-17 08:00:00 7.4 12 Sudeste 21 Sudeste 0 -- -- 53
2019-02-17 07:00:00 8.3 9 Este 21 Este 0 -- -- 48
2019-02-17 06:00:00 7.8 9 Sudeste 21 Sudeste 0 -- -- 55
2019-02-17 05:00:00 8.2 13 Sudeste 19 Sudeste 0 -- -- 52
2019-02-17 04:00:00 8 14 Sudeste 21 Sudeste 0 -- -- 56
2019-02-17 03:00:00 7.9 12 Sudeste 19 Sudeste 0 -- -- 67
2019-02-17 02:00:00 7.6 13 Sudeste 18 Sudeste 0 -- -- 70
2019-02-17 01:00:00 7.7 11 Sudeste 14 Sudeste 0 -- -- 93
2019-02-17 00:00:00 8.7 5 Sudeste 10 Nordeste 0 -- -- 94
2019-02-16 23:00:00 9.3 4 Norte 13 Oeste 0 -- -- 93
2019-02-16 22:00:00 9.6 5 Noroeste 19 Noroeste 0 -- -- 94
2019-02-16 21:00:00 9.3 5 Noroeste 13 Oeste 0 -- -- 90
2019-02-16 20:00:00 9 5 Oeste 15 Oeste 0 -- -- 92
2019-02-16 19:00:00 8.9 8 Oeste 13 Noroeste 0 -- -- 95
2019-02-16 18:00:00 11.7 8 Oeste 16 Oeste 0 -- -- 79
2019-02-16 17:00:00 13.5 9 Noroeste 20 Oeste 0 -- -- 77
2019-02-16 16:00:00 13.8 10 Noroeste 24 Noroeste 0 -- -- 75
2019-02-16 15:00:00 13.9 13 Noroeste 23 Noroeste 0 -- -- 74
2019-02-16 14:00:00 13.7 10 Noroeste 22 Noroeste 0 -- -- 82
2019-02-16 13:00:00 12.5 14 Noroeste 24 Noroeste 0 -- -- 95
2019-02-16 12:00:00 11.9 13 Noroeste 26 Oeste 0 -- -- 99
2019-02-16 11:00:00 9.8 15 Noroeste 27 Norte 0 -- -- 100
2019-02-16 10:00:00 9.6 16 Norte 26 Norte 0 -- -- 100
2019-02-16 09:00:00 9.2 12 Noroeste 28 Noroeste 0 -- -- 100
2019-02-16 08:00:00 8.8 12 Noroeste 30 Norte 0 -- -- 100
2019-02-16 07:00:00 8.6 13 Noroeste 36 Noroeste 0 -- -- 100
2019-02-16 06:00:00 8.8 16 Noroeste 36 Oeste 0 -- -- 100
2019-02-16 05:00:00 8.6 17 Noroeste 32 Noroeste 0 -- -- 100
2019-02-16 04:00:00 8.5 19 Noroeste 40 Noroeste 0 -- -- 100
2019-02-16 03:00:00 8.7 15 Noroeste 35 Oeste 0 -- -- 100
2019-02-16 02:00:00 8.5 17 Noroeste 34 Noroeste 0 -- -- 100
2019-02-16 01:00:00 8.3 21 Noroeste 42 Oeste 0 -- -- 99
2019-02-16 00:00:00 8.5 17 Oeste 33 Noroeste 0 -- -- 99
2019-02-15 23:00:00 8.1 17 Oeste 32 Noroeste 0 -- -- 99
2019-02-15 22:00:00 8.8 14 Noroeste 35 Norte 0 -- -- 99
2019-02-15 21:00:00 8.8 18 Noroeste 28 Noroeste 0 -- -- 99
2019-02-15 20:00:00 8.5 19 Noroeste 35 Noroeste 0 -- -- 99
2019-02-15 19:00:00 8.7 18 Noroeste 38 Noroeste 0 -- -- 99
2019-02-15 18:00:00 9 19 Noroeste 37 Noroeste 0 -- -- 98
2019-02-15 17:00:00 9.5 15 Noroeste 34 Noroeste 0 -- -- 98
2019-02-15 16:00:00 9.7 14 Noroeste 34 Noroeste 0 -- -- 98
2019-02-15 15:00:00 9.8 18 Oeste 33 Noroeste 0 -- -- 98
2019-02-15 14:00:00 9.4 17 Noroeste 38 Noroeste 0 -- -- 99
2019-02-15 13:00:00 9.9 10 Noroeste 28 Noroeste 0 -- -- 97
2019-02-15 12:00:00 9.9 10 Noroeste 21 Norte 0 -- -- 97
2019-02-15 11:00:00 10.1 12 Noroeste 21 Noroeste 0 -- -- 96
2019-02-15 10:00:00 11.4 10 Noroeste 17 Norte 0 -- -- 95
2019-02-15 09:00:00 11.3 6 Noroeste 13 Oeste 0 -- -- 94
2019-02-15 08:00:00 9.9 6 Noroeste 10 Noroeste 0 -- -- 93
2019-02-15 07:00:00 10.2 6 Oeste 14 Sur 0 -- -- 93
2019-02-15 06:00:00 10.3 2 Oeste 18 Sudeste 0 -- -- 87
2019-02-15 05:00:00 13.6 13 Sudeste 38 Oeste 0 -- -- 31
2019-02-15 04:00:00 15 18 Sur 37 Sur 0 -- -- 25
2019-02-15 03:00:00 14.2 14 Sur 33 Sur 0 -- -- 27
2019-02-15 02:00:00 14.1 18 Sudeste 35 Sur 0 -- -- 30
2019-02-15 01:00:00 15.4 19 Sur 53 Sur 0 -- -- 25
2019-02-15 00:00:00 16.5 33 Sur 60 Sur 0 -- -- 23
2019-02-14 23:00:00 16.7 35 Sur 57 Sur 0 -- -- 21
2019-02-14 22:00:00 16.8 6 Oeste 42 Sudeste 0 -- -- 16
2019-02-14 21:00:00 16.2 24 Sudeste 44 Sudeste 0 -- -- 20
2019-02-14 20:00:00 15.9 7 Sur 23 Sudoeste 0 -- -- 20
2019-02-14 19:00:00 16.4 11 Sudoeste 30 Sur 0 -- -- 22
2019-02-14 18:00:00 20.4 6 Este 20 Sudeste 0 -- -- 25
2019-02-14 17:00:00 24.1 5 Sudeste 27 Sudeste 0 -- -- 21
2019-02-14 16:00:00 23.4 3 Nordeste 24 Sudeste 0 -- -- 24
2019-02-14 15:00:00 24.1 9 Sudeste 30 Sudeste 0 -- -- 23
2019-02-14 14:00:00 22.7 9 Noroeste 17 Norte 0 -- -- 20
2019-02-14 13:00:00 23 9 Norte 13 Norte 0 -- -- 21
2019-02-14 12:00:00 22.6 5 Norte 28 Sudoeste 0 -- -- 18
2019-02-14 11:00:00 22.6 9 Sur 26 Sudeste 0 -- -- 20
2019-02-14 10:00:00 20.9 8 Sur 25 Sur 0 -- -- 23
2019-02-14 09:00:00 18 10 Sur 30 Sur 0 -- -- 17
2019-02-14 08:00:00 16.8 9 Sur 32 Sur 0 -- -- 15
2019-02-14 07:00:00 16.9 6 Este 22 Sudeste 0 -- -- 19
2019-02-14 06:00:00 16.1 11 Sudeste 26 Sudeste 0 -- -- 18
2019-02-14 05:00:00 16.2 12 Sudeste 21 Sudeste 0 -- -- 18
2019-02-14 04:00:00 16.5 10 Sur 19 Sudeste 0 -- -- 14
2019-02-14 03:00:00 15.3 12 Sudeste 23 Sudeste 0 -- -- 21
2019-02-14 02:00:00 16.9 10 Sudeste 27 Sudeste 0 -- -- 16
2019-02-14 01:00:00 16.9 10 Sudeste 25 Sudeste 0 -- -- 16
2019-02-14 00:00:00 16.1 11 Sudeste 25 Sudeste 0 -- -- 16
2019-02-13 23:00:00 17.4 13 Sudeste 21 Sudeste 0 -- -- 16
2019-02-13 22:00:00 16.1 13 Sudeste 23 Sudeste 0 -- -- 20
2019-02-13 21:00:00 17.7 4 Sur 14 Sudeste 0 -- -- 14
2019-02-13 20:00:00 17.5 9 Sur 15 Sur 0 -- -- 13
2019-02-13 19:00:00 18.7 2 Noroeste 5 Oeste 0 -- -- 18
2019-02-13 18:00:00 25.4 4 Sudeste 8 Este 0 -- -- 26
2019-02-13 17:00:00 23.8 4 Noroeste 13 Norte 0 -- -- 24
2019-02-13 16:00:00 23.5 6 Noroeste 17 Noroeste 0 -- -- 27
2019-02-13 15:00:00 24.2 8 Norte 16 Norte 0 -- -- 29
2019-02-13 14:00:00 24.1 7 Norte 14 Noroeste 0 -- -- 23
2019-02-13 13:00:00 22.6 8 Norte 13 Noroeste 0 -- -- 24
2019-02-13 12:00:00 22.6 6 Noroeste 13 Noroeste 0 -- -- 23
2019-02-13 11:00:00 22.4 4 Norte 16 Este 0 -- -- 21
2019-02-13 10:00:00 20.4 13 Sudeste 42 Sudeste 0 -- -- 22
2019-02-13 09:00:00 17.6 23 Sudeste 40 Sudeste 0 -- -- 23
2019-02-13 08:00:00 16.1 27 Sudeste 49 Sudeste 0 -- -- 21
2019-02-13 07:00:00 15.3 24 Sudeste 39 Sudeste 0 -- -- 20
2019-02-13 06:00:00 14.9 18 Sudeste 26 Sudeste 0 -- -- 22
2019-02-13 05:00:00 15 18 Sudeste 30 Sudeste 0 -- -- 22
2019-02-13 04:00:00 15.9 21 Sudeste 31 Este 0 -- -- 18
2019-02-13 03:00:00 15.9 22 Sudeste 29 Sudeste 0 -- -- 19
2019-02-13 02:00:00 15.3 16 Sudeste 28 Sudeste 0 -- -- 20
2019-02-13 01:00:00 15.4 18 Sudeste 24 Sudeste 0 -- -- 20
2019-02-13 00:00:00 15.8 17 Sudeste 25 Sudeste 0 -- -- 21
2019-02-12 23:00:00 15.2 15 Sudeste 21 Sur 0 -- -- 21
2019-02-12 22:00:00 14.5 14 Sudeste 24 Sudeste 0 -- -- 22
2019-02-12 21:00:00 15.2 15 Sudeste 18 Sudeste 0 -- -- 29
2019-02-12 20:00:00 14.3 12 Sudeste 14 Sudeste 0 -- -- 46
2019-02-12 19:00:00 17.5 0 Calma 6 Sudeste 0 -- -- 31
2019-02-12 18:00:00 24.3 4 Sudeste 8 Sudeste 0 -- -- 32
2019-02-12 17:00:00 24 4 Noroeste 12 Noroeste 0 -- -- 18
2019-02-12 16:00:00 24 6 Norte 14 Noroeste 0 -- -- 23
2019-02-12 15:00:00 23.9 9 Norte 16 Noroeste 0 -- -- 23
2019-02-12 14:00:00 24 8 Este 24 Este 0 -- -- 23
2019-02-12 13:00:00 24 14 Sudeste 25 Sudeste 0 -- -- 19
2019-02-12 12:00:00 23.8 15 Sudeste 27 Este 0 -- -- 21
2019-02-12 11:00:00 22.2 17 Sudeste 30 Sudeste 0 -- -- 25
2019-02-12 10:00:00 18.6 22 Sudeste 40 Sudeste 0 -- -- 22
2019-02-12 09:00:00 16.3 28 Sudeste 42 Sudeste 0 -- -- 26
2019-02-12 08:00:00 14.5 27 Sudeste 46 Sudeste 0 -- -- 24
2019-02-12 07:00:00 14.5 28 Sudeste 40 Sudeste 0 -- -- 25
2019-02-12 06:00:00 14.5 30 Sudeste 41 Sudeste 0 -- -- 24
2019-02-12 05:00:00 14.6 27 Sudeste 40 Sudeste 0 -- -- 24
2019-02-12 04:00:00 14.7 25 Sudeste 39 Sudeste 0 -- -- 23
2019-02-12 03:00:00 14.7 23 Sudeste 38 Sudeste 0 -- -- 23
2019-02-12 02:00:00 14.4 22 Sudeste 33 Sudeste 0 -- -- 21
2019-02-12 01:00:00 14.5 19 Sudeste 29 Sudeste 0 -- -- 18
2019-02-12 00:00:00 15 22 Sudeste 30 Sudeste 0 -- -- 17
2019-02-11 23:00:00 13.9 17 Sudeste 21 Sudeste 0 -- -- 20
2019-02-11 22:00:00 13.8 12 Sudeste 16 Sudeste 0 -- -- 21
2019-02-11 21:00:00 13.3 11 Sudeste 17 Sudeste 0 -- -- 23
2019-02-11 20:00:00 14.3 14 Sudeste 18 Sudeste 0 -- -- 25
2019-02-11 19:00:00 14.8 12 Sudeste 16 Sudeste 0 -- -- 42
2019-02-11 18:00:00 22.8 6 Este 10 Este 0 -- -- 30
2019-02-11 17:00:00 23.3 4 Este 12 Noroeste 0 -- -- 24
2019-02-11 16:00:00 23.2 6 Norte 18 Este 0 -- -- 23
2019-02-11 15:00:00 21.6 13 Este 31 Sudeste 0 -- -- 24
2019-02-11 14:00:00 23.3 23 Sudeste 36 Este 0 -- -- 19
2019-02-11 13:00:00 22.5 24 Sudeste 41 Sudeste 0 -- -- 24
2019-02-11 12:00:00 22.3 28 Sudeste 44 Sudeste 0 -- -- 20
2019-02-11 11:00:00 21.2 28 Sudeste 42 Sudeste 0 -- -- 20
2019-02-11 10:00:00 19.1 27 Sudeste 40 Sudeste 0 -- -- 20
2019-02-11 09:00:00 16.9 29 Sudeste 42 Sudeste 0 -- -- 22
2019-02-11 08:00:00 14.7 27 Sudeste 41 Sudeste 0 -- -- 21
2019-02-11 07:00:00 14.2 28 Sudeste 40 Sudeste 0 -- -- 25
2019-02-11 06:00:00 13.8 31 Sudeste 49 Sudeste 0 -- -- 27
2019-02-11 05:00:00 13.7 32 Sudeste 53 Sudeste 0 -- -- 29
2019-02-11 04:00:00 13.1 26 Sudeste 42 Sudeste 0 -- -- 33
2019-02-11 03:00:00 13.8 27 Sudeste 45 Sudeste 0 -- -- 30
2019-02-11 02:00:00 13.9 25 Sudeste 39 Sudeste 0 -- -- 26
2019-02-11 01:00:00 14.6 27 Sudeste 41 Este 0 -- -- 20
2019-02-11 00:00:00 13.8 22 Sudeste 33 Sudeste 0 -- -- 24
2019-02-10 23:00:00 13.5 22 Sudeste 32 Sudeste 0 -- -- 24
2019-02-10 22:00:00 14.6 22 Sudeste 36 Sudeste 0 -- -- 20
2019-02-10 21:00:00 13.8 19 Sudeste 36 Sudeste 0 -- -- 23
2019-02-10 20:00:00 13.9 22 Sudeste 36 Este 0 -- -- 22
2019-02-10 19:00:00 13.7 20 Sudeste 33 Sudeste 0 -- -- 24
2019-02-10 18:00:00 17.2 20 Sudeste 33 Sudeste 0 -- -- 29
2019-02-10 17:00:00 18.6 25 Sudeste 40 Sudeste 0 -- -- 22
2019-02-10 16:00:00 19 27 Sudeste 47 Sudeste 0 -- -- 24
2019-02-10 15:00:00 19.8 26 Sudeste 40 Sudeste 0 -- -- 25
2019-02-10 14:00:00 20 26 Sudeste 47 Sudeste 0 -- -- 26
2019-02-10 13:00:00 20.2 26 Sudeste 44 Sudeste 0 -- -- 25
2019-02-10 12:00:00 20.3 24 Sudeste 41 Sudeste 0 -- -- 26
2019-02-10 11:00:00 18.6 29 Sudeste 44 Sudeste 0 -- -- 32
2019-02-10 10:00:00 15.7 31 Sudeste 49 Sudeste 0 -- -- 32
2019-02-10 09:00:00 13.9 30 Sudeste 45 Sudeste 0 -- -- 33
2019-02-10 08:00:00 12.2 24 Sudeste 40 Sudeste 0 -- -- 32
2019-02-10 07:00:00 11.6 19 Sudeste 35 Sudeste 0 -- -- 30
2019-02-10 06:00:00 12 23 Sudeste 34 Sur 0 -- -- 31
2019-02-10 05:00:00 11.9 21 Sudeste 33 Sudeste 0 -- -- 28
2019-02-10 04:00:00 12 14 Sudeste 24 Sudeste 0 -- -- 33
2019-02-10 03:00:00 12.3 16 Sudeste 27 Sudeste 0 -- -- 31
2019-02-10 02:00:00 12.2 17 Sudeste 27 Sudeste 0 -- -- 31
2019-02-10 01:00:00 12.4 15 Sudeste 24 Sudeste 0 -- -- 29
2019-02-10 00:00:00 12.9 17 Sudeste 25 Sudeste 0 -- -- 27
2019-02-09 23:00:00 12.1 15 Sudeste 23 Sudeste 0 -- -- 29
2019-02-09 22:00:00 11.5 12 Sudeste 18 Sudeste 0 -- -- 32
2019-02-09 21:00:00 14 0 Calma 2 Oeste 0 -- -- 36
2019-02-09 20:00:00 14.2 2 Noroeste 5 Sudoeste 0 -- -- 36
2019-02-09 19:00:00 13.9 3 Sudoeste 8 Oeste 0 -- -- 44
2019-02-09 18:00:00 19.2 3 Oeste 12 Sudeste 0 -- -- 58
2019-02-09 17:00:00 20.7 3 Sudeste 14 Este 0 -- -- 54
2019-02-09 16:00:00 20.7 3 Sudeste 11 Norte 0 -- -- 56
2019-02-09 15:00:00 19.3 4 Norte 19 Este 0 -- -- 60
2019-02-09 14:00:00 20.1 9 Este 20 Este 0 -- -- 43
2019-02-09 13:00:00 19.4 12 Este 24 Sudeste 0 -- -- 43
2019-02-09 12:00:00 19.7 8 Este 14 Sudeste 0 -- -- 48
2019-02-09 11:00:00 19.5 4 Norte 10 Este 0 -- -- 25
2019-02-09 10:00:00 16.9 5 Sudeste 9 Sudeste 0 -- -- 28
2019-02-09 09:00:00 12.7 10 Sudeste 16 Sudeste 0 -- -- 37
2019-02-09 08:00:00 7.2 13 Sudeste 15 Sudeste 0 -- -- 49
2019-02-09 07:00:00 5.8 7 Sudeste 12 Sudeste 0 -- -- 88
2019-02-09 06:00:00 8.6 7 Sudeste 12 Sudeste 0 -- -- 37
2019-02-09 05:00:00 12.4 4 Sudoeste 16 Sudeste 0 -- -- 15
2019-02-09 04:00:00 4.8 10 Sudeste 26 Este 0 -- -- 98
2019-02-09 03:00:00 7.1 17 Sudeste 25 Sudeste 0 -- -- 99
2019-02-09 02:00:00 7.3 18 Sudeste 25 Sudeste 0 -- -- 99
2019-02-09 01:00:00 7.5 18 Sudeste 24 Este 0 -- -- 98
2019-02-09 00:00:00 7.4 17 Sudeste 20 Este 0 -- -- 96
2019-02-08 23:00:00 6.7 8 Sudeste 11 Sudeste 0 -- -- 88
2019-02-08 22:00:00 8.5 4 Sudeste 12 Sudeste 0 -- -- 39
2019-02-08 21:00:00 9.3 6 Sudeste 11 Sudeste 0 -- -- 42
2019-02-08 20:00:00 10.4 3 Sudeste 6 Noroeste 0 -- -- 65
2019-02-08 19:00:00 9.6 3 Noroeste 12 Sudeste 0 -- -- 89
2019-02-08 18:00:00 16 7 Sudeste 12 Sudeste 0 -- -- 64
2019-02-08 17:00:00 16.1 7 Sudeste 16 Este 0 -- -- 68
2019-02-08 16:00:00 16.3 9 Sudeste 21 Este 0 -- -- 67
2019-02-08 15:00:00 15.4 14 Este 23 Sudeste 0 -- -- 71
2019-02-08 14:00:00 15.9 15 Este 28 Nordeste 0 -- -- 69
2019-02-08 13:00:00 14.6 20 Este 35 Este 0 -- -- 73
2019-02-08 12:00:00 13.8 24 Sudeste 33 Este 0 -- -- 79
2019-02-08 11:00:00 11.3 24 Sudeste 33 Este 0 -- -- 96
2019-02-08 10:00:00 8.5 24 Sudeste 32 Este 0 -- -- 99
2019-02-08 09:00:00 7.6 25 Sudeste 30 Este 0 -- -- 99
2019-02-08 08:00:00 7.1 21 Sudeste 25 Este 0 -- -- 100
2019-02-08 07:00:00 6.8 19 Sudeste 23 Sudeste 0 -- -- 99
2019-02-08 06:00:00 6 19 Sudeste 27 Sudeste 0 -- -- 98
2019-02-08 05:00:00 7.4 23 Sudeste 28 Sudeste 0 -- -- 99
2019-02-08 04:00:00 7.5 24 Sudeste 27 Sudeste 0 -- -- 99
2019-02-08 03:00:00 6.2 21 Sudeste 24 Sudeste 0 -- -- 98
2019-02-08 02:00:00 7.2 20 Sudeste 28 Sudeste 0 -- -- 99
2019-02-08 01:00:00 7.7 24 Sudeste 30 Sudeste 0 -- -- 99
2019-02-08 00:00:00 8.4 26 Sudeste 31 Sudeste 0 -- -- 98
2019-02-07 23:00:00 8.6 25 Sudeste 31 Sudeste 0 -- -- 98
2019-02-07 22:00:00 8.6 24 Sudeste 28 Sudeste 0 -- -- 96
2019-02-07 21:00:00 8 18 Sudeste 20 Sudeste 0 -- -- 35
2019-02-07 20:00:00 7 12 Sudeste 14 Sudeste 0 -- -- 53
2019-02-07 19:00:00 9.3 10 Sudeste 18 Sudeste 0 -- -- 95
2019-02-07 18:00:00 12.9 15 Sudeste 22 Sudeste 0 -- -- 80
2019-02-07 17:00:00 15.3 13 Este 21 Sudeste 0 -- -- 72
2019-02-07 16:00:00 16.5 13 Este 23 Este 0 -- -- 67
2019-02-07 15:00:00 16.5 12 Este 24 Este 0 -- -- 67
2019-02-07 14:00:00 17 15 Este 25 Este 0 -- -- 65
2019-02-07 13:00:00 15.8 16 Este 27 Este 0 -- -- 68
2019-02-07 12:00:00 16.3 16 Este 30 Sudeste 0 -- -- 65
2019-02-07 11:00:00 15.5 19 Sudeste 28 Este 0 -- -- 65
2019-02-07 10:00:00 14.1 22 Sudeste 31 Este 0 -- -- 35
2019-02-07 09:00:00 12.3 20 Sudeste 28 Sudeste 0 -- -- 37
2019-02-07 08:00:00 9.9 22 Sudeste 27 Sudeste 0 -- -- 38
2019-02-07 07:00:00 9.3 18 Sudeste 23 Sudeste 0 -- -- 42
2019-02-07 06:00:00 9.5 18 Sudeste 26 Este 0 -- -- 43
2019-02-07 05:00:00 9.6 18 Sudeste 30 Sudeste 0 -- -- 42
2019-02-07 04:00:00 9.6 19 Sudeste 29 Sudeste 0 -- -- 44
2019-02-07 03:00:00 9.1 14 Sudeste 23 Sudeste 0 -- -- 47
2019-02-07 02:00:00 9.5 15 Sudeste 25 Sudeste 0 -- -- 45
2019-02-07 01:00:00 10.2 15 Sudeste 29 Sudeste 0 -- -- 40
2019-02-07 00:00:00 9.4 13 Sudeste 26 Sudeste 0 -- -- 44
2019-02-06 23:00:00 10.5 15 Sudeste 26 Sudeste 0 -- -- 42
2019-02-06 22:00:00 10.3 13 Sudeste 26 Sudeste 0 -- -- 39
2019-02-06 21:00:00 10.5 17 Sudeste 28 Sudeste 0 -- -- 34
2019-02-06 20:00:00 10.6 16 Sudeste 28 Sudeste 0 -- -- 30
2019-02-06 19:00:00 11.3 19 Sudeste 28 Sudeste 0 -- -- 27
2019-02-06 18:00:00 14.6 21 Sudeste 31 Sudeste 0 -- -- 23
2019-02-06 17:00:00 16.3 18 Sudeste 34 Este 0 -- -- 29
2019-02-06 16:00:00 17.4 21 Sudeste 35 Sudeste 0 -- -- 25
2019-02-06 15:00:00 17.8 22 Sudeste 37 Sudeste 0 -- -- 27
2019-02-06 14:00:00 18.3 22 Sudeste 41 Sudeste 0 -- -- 31
2019-02-06 13:00:00 18.5 22 Sudeste 38 Sudeste 0 -- -- 27
2019-02-06 12:00:00 18.1 23 Sudeste 45 Sudeste 0 -- -- 28
2019-02-06 11:00:00 16.8 32 Sudeste 46 Sudeste 0 -- -- 25
2019-02-06 10:00:00 14.8 30 Sudeste 42 Sudeste 0 -- -- 23
2019-02-06 09:00:00 12.7 24 Sudeste 35 Sudeste 0 -- -- 25
2019-02-06 08:00:00 8.8 23 Sudeste 38 Sudeste 0 -- -- 34
2019-02-06 07:00:00 9.5 27 Sudeste 45 Sudeste 0 -- -- 41
2019-02-06 06:00:00 10 29 Sudeste 43 Sudeste 0 -- -- 39
2019-02-06 05:00:00 10.1 27 Sudeste 38 Sudeste 0 -- -- 41
2019-02-06 04:00:00 10 22 Sudeste 42 Sudeste 0 -- -- 44
2019-02-06 03:00:00 10.4 26 Sudeste 43 Sudeste 0 -- -- 40
2019-02-06 02:00:00 10.5 23 Sudeste 36 Sudeste 0 -- -- 37
2019-02-06 01:00:00 9.9 18 Sudeste 35 Sudeste 0 -- -- 35
2019-02-06 00:00:00 9.2 17 Sudeste 25 Sudeste 0 -- -- 36
2019-02-05 23:00:00 10.9 20 Sudeste 41 Sudeste 0 -- -- 28
2019-02-05 22:00:00 11.8 29 Sudeste 47 Sudeste 0 -- -- 24
2019-02-05 21:00:00 12.2 34 Sudeste 52 Sudeste 0 -- -- 24
2019-02-05 20:00:00 11.6 33 Sudeste 51 Sudeste 0 -- -- 23
2019-02-05 19:00:00 11.5 20 Sudeste 39 Sudeste 0 -- -- 15
2019-02-05 18:00:00 13.8 25 Sudeste 37 Sudeste 0 -- -- 22
2019-02-05 17:00:00 15.9 24 Sudeste 42 Sudeste 0 -- -- 25
2019-02-05 16:00:00 17.2 24 Sudeste 48 Sudeste 0 -- -- 23
2019-02-05 15:00:00 17.6 23 Sudeste 37 Sudeste 0 -- -- 25
2019-02-05 14:00:00 17.9 23 Sudeste 37 Sudeste 0 -- -- 23
2019-02-05 13:00:00 17.5 23 Sudeste 44 Sudeste 0 -- -- 28
2019-02-05 12:00:00 17.4 28 Sudeste 45 Sudeste 0 -- -- 28
2019-02-05 11:00:00 16.6 30 Sudeste 57 Sudeste 0 -- -- 26
2019-02-05 10:00:00 14.5 27 Sudeste 44 Sudeste 0 -- -- 29
2019-02-05 09:00:00 11 14 Sudeste 25 Sudeste 0 -- -- 39
2019-02-05 08:00:00 9.9 14 Sudeste 32 Sudeste 0 -- -- 35
2019-02-05 07:00:00 9.9 18 Sudeste 31 Sudeste 0 -- -- 32
2019-02-05 06:00:00 10.1 18 Sudeste 29 Sudeste 0 -- -- 36
2019-02-05 05:00:00 10.9 13 Sudeste 26 Sudeste 0 -- -- 30
2019-02-05 04:00:00 11.2 13 Sudeste 32 Sudeste 0 -- -- 28
2019-02-05 03:00:00 11 16 Sudeste 34 Sudeste 0 -- -- 35
2019-02-05 02:00:00 11.8 18 Sudeste 35 Sudeste 0 -- -- 32
2019-02-05 01:00:00 12.5 19 Sudeste 40 Sudeste 0 -- -- 36
2019-02-05 00:00:00 11.7 19 Sudeste 32 Sudeste 0 -- -- 38
2019-02-04 23:00:00 12.1 18 Sudeste 41 Sudeste 0 -- -- 37
2019-02-04 22:00:00 13.5 26 Sudeste 42 Sudeste 0 -- -- 32
2019-02-04 21:00:00 12.4 21 Sudeste 33 Sudeste 0 -- -- 39
2019-02-04 20:00:00 12.9 27 Sudeste 41 Sudeste 0 -- -- 40
2019-02-04 19:00:00 12 17 Sudeste 24 Sudeste 0 -- -- 56
2019-02-04 18:00:00 14.3 13 Sudeste 19 Sudeste 0 -- -- 56
2019-02-04 17:00:00 16.6 11 Sudeste 20 Este 0 -- -- 61
2019-02-04 16:00:00 17.6 14 Este 22 Este 0 -- -- 57
2019-02-04 15:00:00 18.1 13 Este 22 Este 0 -- -- 54
2019-02-04 14:00:00 18.3 13 Sudeste 23 Este 0 -- -- 64
2019-02-04 13:00:00 17 16 Sudeste 25 Este 0 -- -- 69
2019-02-04 12:00:00 16.7 22 Sudeste 30 Sudeste 0 -- -- 69
2019-02-04 11:00:00 15.9 19 Sudeste 33 Sudeste 0.2 -- -- 71
2019-02-04 10:00:00 13.2 18 Sudeste 27 Sudeste 0 -- -- 80
2019-02-04 09:00:00 9 17 Sudeste 23 Sudeste 0 -- -- 100
2019-02-04 08:00:00 8.8 14 Sudeste 21 Sudeste 0 -- -- 100
2019-02-04 07:00:00 8.5 10 Sudeste 19 Sudeste 0 -- -- 99
2019-02-04 06:00:00 8.5 8 Este 15 Sudeste 0 -- -- 99
2019-02-04 05:00:00 8.4 10 Sudeste 24 Sudeste 0 -- -- 99
2019-02-04 04:00:00 8.2 15 Sudeste 24 Sudeste 0 -- -- 98
2019-02-04 03:00:00 8 13 Sudeste 23 Sudeste 0 -- -- 97
2019-02-04 02:00:00 7.9 17 Sudeste 28 Sudeste 0 -- -- 96
2019-02-04 01:00:00 8.3 15 Sudeste 23 Sudeste 0 -- -- 96
2019-02-04 00:00:00 8.5 13 Sudeste 19 Sudeste 0 -- -- 97
2019-02-03 23:00:00 8.5 11 Sudeste 22 Sudeste 0 -- -- 97
2019-02-03 22:00:00 8.4 12 Este 23 Sudeste 0 -- -- 96
2019-02-03 21:00:00 8.4 12 Sudeste 19 Sudeste 0 -- -- 95
2019-02-03 20:00:00 8.4 10 Sudeste 17 Sudeste 0 -- -- 97
2019-02-03 19:00:00 8.8 8 Sur 13 Este 0 -- -- 94
2019-02-03 18:00:00 9.9 6 Este 15 Este 0 -- -- 94
2019-02-03 17:00:00 10.5 10 Este 17 Este 0 -- -- 92
2019-02-03 16:00:00 11.3 9 Este 23 Nordeste 0 -- -- 85
2019-02-03 15:00:00 11.7 8 Sudeste 19 Nordeste 0 -- -- 86
2019-02-03 14:00:00 10.6 8 Nordeste 22 Este 0 -- -- 87
2019-02-03 13:00:00 10.3 8 Nordeste 21 Nordeste 0 -- -- 91
2019-02-03 12:00:00 10.4 6 Este 17 Este 0 -- -- 92
2019-02-03 11:00:00 10 9 Este 21 Este 0 -- -- 90
2019-02-03 10:00:00 9.2 6 Nordeste 16 Este 0 -- -- 92
2019-02-03 09:00:00 8.6 6 Sudeste 20 Este 0 -- -- 96
2019-02-03 08:00:00 7.9 3 Sudeste 22 Este 0 -- -- 96
2019-02-03 07:00:00 8 5 Este 17 Este 0 -- -- 96
2019-02-03 06:00:00 8.1 6 Este 22 Nordeste 0 -- -- 98
2019-02-03 05:00:00 7.9 10 Sudeste 29 Nordeste 0 -- -- 97
2019-02-03 04:00:00 8.4 7 Este 27 Nordeste 0 -- -- 98
2019-02-03 03:00:00 8 6 Sudeste 24 Nordeste 0 -- -- 96
2019-02-03 02:00:00 8.6 9 Nordeste 22 Nordeste 0 -- -- 97
2019-02-03 01:00:00 8.6 10 Nordeste 24 Nordeste 0 -- -- 96
2019-02-03 00:00:00 8.3 11 Nordeste 21 Nordeste 0 -- -- 97
2019-02-02 23:00:00 8.6 11 Nordeste 27 Este 0.4 -- -- 98
2019-02-02 22:00:00 9 8 Norte 23 Nordeste 0 -- -- 97
2019-02-02 21:00:00 8.5 5 Nordeste 26 Nordeste 0 -- -- 94
2019-02-02 20:00:00 8.1 7 Nordeste 23 Nordeste 0 -- -- 93
2019-02-02 19:00:00 8.7 9 Nordeste 18 Nordeste 0 -- -- 97
2019-02-02 18:00:00 8.8 4 Norte 17 Nordeste 0.2 -- -- 97
2019-02-02 17:00:00 9.4 6 Norte 19 Norte 0 -- -- 91
2019-02-02 16:00:00 9.8 10 Nordeste 20 Nordeste 0 -- -- 90
2019-02-02 15:00:00 10.2 10 Norte 19 Norte 0 -- -- 85
2019-02-02 14:00:00 11.2 3 Norte 14 Nordeste 0 -- -- 87
2019-02-02 13:00:00 9.8 7 Norte 25 Noroeste 0 -- -- 95
2019-02-02 12:00:00 9.2 8 Norte 25 Norte 0 -- -- 99
2019-02-02 11:00:00 9.2 12 Norte 25 Nordeste 0 -- -- 100
2019-02-02 10:00:00 8.8 6 Norte 26 Nordeste 0 -- -- 100
2019-02-02 09:00:00 8.6 4 Norte 17 Norte 0.4 -- -- 100
2019-02-02 08:00:00 8.3 8 Norte 22 Norte 0.4 -- -- 100
2019-02-02 07:00:00 8.9 14 Norte 30 Norte 1.6 -- -- 100
2019-02-02 06:00:00 9.8 13 Norte 29 Norte 2.2 -- -- 100
2019-02-02 05:00:00 9.8 14 Norte 29 Norte 2.4 -- -- 100
2019-02-02 04:00:00 10.3 15 Norte 33 Norte 4.6 -- -- 100
2019-02-02 03:00:00 11.3 14 Norte 33 Norte 4.6 -- -- 100
2019-02-02 02:00:00 11.6 9 Norte 26 Noroeste 3 -- -- 100
2019-02-02 01:00:00 11.6 12 Noroeste 24 Noroeste 3.2 -- -- 100
2019-02-02 00:00:00 11.6 9 Noroeste 26 Noroeste 1.2 -- -- 100
2019-02-01 23:00:00 11.2 9 Oeste 26 Noroeste 1 -- -- 100
2019-02-01 22:00:00 10.9 13 Noroeste 28 Noroeste 0.2 -- -- 100
2019-02-01 21:00:00 10.7 14 Noroeste 31 Oeste 0 -- -- 99
2019-02-01 20:00:00 11 16 Noroeste 35 Oeste 0 -- -- 99
2019-02-01 19:00:00 11.1 20 Noroeste 31 Oeste -- -- -- 99
2019-02-01 18:00:00 11.5 13 Noroeste 27 Sudoeste 0.6 -- -- 97
2019-02-01 17:00:00 12.6 15 Noroeste 27 Oeste 0 -- -- 89
2019-02-01 16:00:00 14.3 15 Noroeste 27 Noroeste 0 -- -- 81
2019-02-01 15:00:00 15.4 14 Noroeste 24 Norte 0 -- -- 75
2019-02-01 14:00:00 15.6 14 Oeste 27 Oeste 0 -- -- 75
2019-02-01 13:00:00 15.4 12 Oeste 19 Oeste 0 -- -- 73
2019-02-01 12:00:00 14 9 Noroeste 26 Oeste 0 -- -- 77
2019-02-01 11:00:00 12.8 13 Oeste 24 Noroeste 0 -- -- 78
2019-02-01 10:00:00 11 12 Oeste 23 Oeste 0 -- -- 85
2019-02-01 09:00:00 9.5 16 Oeste 26 Oeste 0 -- -- 90
2019-02-01 08:00:00 8.6 15 Oeste 30 Oeste 0 -- -- 93
2019-02-01 07:00:00 8.7 15 Oeste 26 Oeste 0 -- -- 95
2019-02-01 06:00:00 8.6 15 Oeste 26 Oeste 0 -- -- 93
2019-02-01 05:00:00 8.5 15 Noroeste 31 Oeste 0 -- -- 95
2019-02-01 04:00:00 8.6 15 Noroeste 26 Noroeste 0 -- -- 95
2019-02-01 03:00:00 8.8 14 Noroeste 28 Oeste 0 -- -- 96
2019-02-01 02:00:00 8.9 15 Oeste 27 Oeste 0 -- -- 95
2019-02-01 01:00:00 8.9 16 Oeste 28 Oeste 0 -- -- 94
2019-02-01 00:00:00 8.8 14 Oeste 25 Oeste 0 -- -- 94
2019-01-31 23:00:00 8.7 13 Noroeste 22 Oeste 0 -- -- 96
2019-01-31 22:00:00 8.7 10 Noroeste 24 Oeste 0 -- -- 96
2019-01-31 21:00:00 8.7 11 Noroeste 21 Oeste 0 -- -- 97
2019-01-31 20:00:00 8.9 12 Oeste 20 Oeste 0 -- -- 95
2019-01-31 19:00:00 9 8 Noroeste 19 Oeste 0 -- -- 96
2019-01-31 18:00:00 9.6 9 Noroeste 16 Noroeste 0 -- -- 93
2019-01-31 17:00:00 10.1 8 Noroeste 19 Noroeste 0 -- -- 95
2019-01-31 16:00:00 10.5 8 Noroeste 23 Noroeste 0 -- -- 94
2019-01-31 15:00:00 11.2 9 Noroeste 19 Noroeste 0 -- -- 95
2019-01-31 14:00:00 12.8 9 Noroeste 19 Noroeste 0 -- -- 83
2019-01-31 13:00:00 11.8 11 Noroeste 19 Noroeste 0 -- -- 85
2019-01-31 12:00:00 12.6 9 Noroeste 15 Noroeste 0 -- -- 84
2019-01-31 11:00:00 10.7 5 Noroeste 13 Norte 0 -- -- 94
2019-01-31 10:00:00 9.6 6 Oeste 12 Oeste 0 -- -- 97
2019-01-31 09:00:00 8.3 3 Noroeste 12 Noroeste 0 -- -- 99
2019-01-31 08:00:00 8.1 9 Noroeste 17 Oeste 0 -- -- 100
2019-01-31 07:00:00 8 9 Noroeste 16 Noroeste 0 -- -- 100
2019-01-31 06:00:00 7.8 8 Oeste 15 Oeste 0 -- -- 100
2019-01-31 05:00:00 8.4 9 Noroeste 18 Norte 0 -- -- 100
2019-01-31 04:00:00 8.2 5 Noroeste 13 Oeste 0.2 -- -- 100
2019-01-31 03:00:00 8 7 Oeste 14 Noroeste 0 -- -- 100
2019-01-31 02:00:00 7.9 8 Oeste 19 Noroeste 0 -- -- 100
2019-01-31 01:00:00 8.2 6 Noroeste 14 Sudoeste 0.4 -- -- 100
2019-01-31 00:00:00 8.1 6 Oeste 16 Norte 0 -- -- 100
2019-01-30 23:00:00 8.3 6 Oeste 17 Noroeste 0.2 -- -- 100
2019-01-30 22:00:00 8.4 6 Noroeste 19 Noroeste 0 -- -- 99
2019-01-30 21:00:00 9 8 Noroeste 20 Norte 0 -- -- 99
2019-01-30 20:00:00 9.3 12 Norte 26 Norte 0.8 -- -- 99
2019-01-30 19:00:00 9.1 8 Noroeste 19 Norte 0 -- -- 98
2019-01-30 18:00:00 9.7 9 Noroeste 16 Norte 0 -- -- 97
2019-01-30 17:00:00 10.9 8 Noroeste 16 Noroeste 0 -- -- 96
2019-01-30 16:00:00 11.3 4 Oeste 16 Norte 0 -- -- 96
2019-01-30 15:00:00 11.9 9 Norte 17 Norte 0 -- -- 85
2019-01-30 14:00:00 12.3 7 Norte 19 Norte 0 -- -- 85
2019-01-30 13:00:00 11.5 9 Norte 19 Norte 0 -- -- 92
2019-01-30 12:00:00 12.3 7 Norte 13 Noroeste 0 -- -- 90
2019-01-30 11:00:00 10.8 2 Sudeste 14 Norte 0 -- -- 99
2019-01-30 10:00:00 9.5 4 Norte 13 Noroeste 0.2 -- -- 100
2019-01-30 09:00:00 8.9 3 Sur 21 Nordeste 0.2 -- -- 100
2019-01-30 08:00:00 8.7 3 Noroeste 17 Norte 0.2 -- -- 100
2019-01-30 07:00:00 8.7 6 Noroeste 18 Norte 0.2 -- -- 100
2019-01-30 06:00:00 9 8 Norte 18 Norte 0.2 -- -- 100
2019-01-30 05:00:00 9.1 8 Norte 17 Norte 0 -- -- 100
2019-01-30 04:00:00 9 3 Sur 13 Norte 0.2 -- -- 100
2019-01-30 03:00:00 9.3 7 Norte 20 Norte 0.4 -- -- 100
2019-01-30 02:00:00 9.5 4 Noroeste 13 Oeste 0.8 -- -- 100
2019-01-30 01:00:00 9.6 6 Norte 13 Norte 0.2 -- -- 99
2019-01-30 00:00:00 9.8 4 Sur 10 Nordeste -- -- -- 99
2019-01-29 23:00:00 10.2 4 Este 10 Norte -- -- -- 99
2019-01-29 22:00:00 10.1 3 Sur 11 Sudeste -- -- -- 99
2019-01-29 21:00:00 10 3 Sudeste 11 Nordeste 0.2 -- -- 99
2019-01-29 20:00:00 10.3 5 Sudeste 11 Sudeste 0.4 -- -- 99
2019-01-29 19:00:00 10.4 6 Sudeste 13 Nordeste 0.4 -- -- 98
2019-01-29 18:00:00 10.6 5 Sur 13 Sudeste 0 -- -- 96
2019-01-29 17:00:00 11.1 5 Sudeste 14 Este 0 -- -- 94
2019-01-29 16:00:00 11.3 8 Nordeste 18 Nordeste 0.4 -- -- 95
2019-01-29 15:00:00 12.4 3 Nordeste 13 Norte 0 -- -- 87
2019-01-29 14:00:00 11.8 3 Norte 14 Norte 0 -- -- 87
2019-01-29 13:00:00 12.3 5 Norte 13 Norte 0 -- -- 86
2019-01-29 12:00:00 11.1 4 Norte 14 Norte 0 -- -- 94
2019-01-29 11:00:00 10.8 3 Este 12 Nordeste 0.2 -- -- 95
2019-01-29 10:00:00 10.2 5 Sur 15 Este 0 -- -- 96
2019-01-29 09:00:00 9.6 5 Nordeste 12 Norte 0 -- -- 97
2019-01-29 08:00:00 9 8 Sudeste 15 Sudeste 0 -- -- 99
2019-01-29 07:00:00 9.1 2 Sur 12 Este 0 -- -- 98
2019-01-29 06:00:00 9.1 5 Sudeste 12 Sur 0 -- -- 98
2019-01-29 05:00:00 8.7 3 Sudeste 10 Este 0 -- -- 98
2019-01-29 04:00:00 8.4 2 Sur 10 Nordeste 0 -- -- 98
2019-01-29 03:00:00 8 6 Norte 13 Norte 0 -- -- 97
2019-01-29 02:00:00 8.4 2 Sudeste 9 Sudeste 0 -- -- 97
2019-01-29 01:00:00 8.6 0 Calma 17 Sudeste 0 -- -- 98
2019-01-29 00:00:00 9 8 Sudeste 21 Sudeste 0 -- -- 98
2019-01-28 23:00:00 8.8 5 Este 19 Sudeste 0 -- -- 98
2019-01-28 22:00:00 9 5 Este 17 Este 0 -- -- 97
2019-01-28 21:00:00 9 6 Sudeste 14 Sudeste 0 -- -- 97
2019-01-28 20:00:00 9 8 Sudeste 15 Nordeste 0 -- -- 97
2019-01-28 19:00:00 9.5 8 Sudeste 16 Sudeste 0 -- -- 96
2019-01-28 18:00:00 10 4 Este 14 Este 0 -- -- 93
2019-01-28 17:00:00 10.7 5 Este 15 Nordeste 0 -- -- 90
2019-01-28 16:00:00 11.8 7 Este 14 Este 0 -- -- 85
2019-01-28 15:00:00 12.3 8 Norte 18 Noroeste 0 -- -- 81
2019-01-28 14:00:00 13.5 9 Norte 18 Este 0 -- -- 80
2019-01-28 13:00:00 13.6 6 Este 18 Este 0 -- -- 77
2019-01-28 12:00:00 12.5 6 Sudeste 17 Este 0 -- -- 83
2019-01-28 11:00:00 11.2 8 Este 19 Sudeste 0 -- -- 91
2019-01-28 10:00:00 10.5 5 Este 20 Este 0 -- -- 95
2019-01-28 09:00:00 9.9 3 Sur 20 Este 0 -- -- 93
2019-01-28 08:00:00 9.6 6 Nordeste 21 Nordeste 0 -- -- 97
2019-01-28 07:00:00 9.6 8 Nordeste 24 Norte 0 -- -- 97
2019-01-28 06:00:00 9.4 7 Nordeste 19 Norte 0 -- -- 97
2019-01-28 05:00:00 9.3 6 Nordeste 19 Nordeste 0 -- -- 97
2019-01-28 04:00:00 9.7 10 Nordeste 22 Nordeste 0 -- -- 97
2019-01-28 03:00:00 9.5 3 Nordeste 22 Norte 0 -- -- 97
2019-01-28 02:00:00 9.7 6 Nordeste 19 Norte 0 -- -- 96
2019-01-28 01:00:00 9.8 5 Nordeste 18 Norte 0 -- -- 96
2019-01-28 00:00:00 9.7 5 Sudoeste 13 Noroeste 0 -- -- 95
2019-01-27 23:00:00 9.4 3 Sur 14 Noroeste 0 -- -- 95
2019-01-27 22:00:00 9.4 3 Noroeste 13 Norte 0 -- -- 96
2019-01-27 21:00:00 10.1 8 Norte 20 Nordeste 0 -- -- 98
2019-01-27 20:00:00 10.2 4 Nordeste 14 Nordeste 0 -- -- 96
2019-01-27 19:00:00 10.5 5 Noroeste 13 Noroeste 0 -- -- 95
2019-01-27 18:00:00 11 7 Noroeste 15 Noroeste 0 -- -- 91
2019-01-27 17:00:00 14.4 9 Noroeste 17 Oeste 0 -- -- 76
2019-01-27 16:00:00 14.8 8 Noroeste 18 Norte 0 -- -- 72
2019-01-27 15:00:00 15.1 9 Norte 18 Norte 0 -- -- 72
2019-01-27 14:00:00 15.1 6 Noroeste 17 Norte 0 -- -- 68
2019-01-27 13:00:00 13.2 8 Norte 15 Norte 0 -- -- 74
2019-01-27 12:00:00 12.9 4 Nordeste 9 Nordeste 0 -- -- 76
2019-01-27 11:00:00 12.2 3 Norte 11 Noroeste 0 -- -- 80
2019-01-27 10:00:00 11 0 Calma 10 Nordeste 0 -- -- 91
2019-01-27 09:00:00 9.5 5 Noroeste 11 Noroeste 0 -- -- 94
2019-01-27 08:00:00 9.3 4 Noroeste 16 Norte 0 -- -- 98
2019-01-27 07:00:00 8.9 8 Oeste 11 Oeste 0 -- -- 97
2019-01-27 06:00:00 8.7 6 Oeste 12 Oeste 0 -- -- 93
2019-01-27 05:00:00 8.8 5 Oeste 10 Noroeste 0 -- -- 92
2019-01-27 04:00:00 8.5 8 Noroeste 10 Oeste 0 -- -- 91
2019-01-27 03:00:00 8.6 7 Noroeste 10 Oeste 0 -- -- 91
2019-01-27 02:00:00 9 3 Noroeste 3 Noroeste 0 -- -- 90
2019-01-27 01:00:00 8.5 2 Noroeste 3 Noroeste 0 -- -- 95
2019-01-27 00:00:00 8.1 0 Calma 5 Este 0 -- -- 99
2019-01-26 23:00:00 7.7 3 Este 13 Este 0 -- -- 99
2019-01-26 22:00:00 7.5 10 Sudeste 12 Sudeste 0 -- -- 98
2019-01-26 21:00:00 8.2 2 Este 5 Sur 0 -- -- 98
2019-01-26 20:00:00 9 0 Calma 5 Noroeste 0 -- -- 98
2019-01-26 19:00:00 9.6 0 Calma 5 Noroeste 0 -- -- 97
2019-01-26 18:00:00 10.7 2 Noroeste 6 Norte 0 -- -- 92
2019-01-26 17:00:00 11.5 4 Noroeste 8 Norte 0 -- -- 88
2019-01-26 16:00:00 12.5 5 Noroeste 12 Noroeste 0 -- -- 86
2019-01-26 15:00:00 12.4 6 Noroeste 13 Noroeste 0 -- -- 88
2019-01-26 14:00:00 12.5 5 Noroeste 13 Noroeste 0 -- -- 84
2019-01-26 13:00:00 12.3 5 Norte 12 Norte 0 -- -- 90
2019-01-26 12:00:00 12.5 4 Norte 8 Noroeste 0 -- -- 88
2019-01-26 11:00:00 12.4 3 Norte 8 Norte 0 -- -- 80
2019-01-26 10:00:00 11.7 3 Norte 5 Norte 0 -- -- 84
2019-01-26 09:00:00 9.9 2 Norte 4 Oeste 0 -- -- 94
2019-01-26 08:00:00 9.1 2 Oeste 5 Noroeste 0 -- -- 94
2019-01-26 07:00:00 9.1 2 Noroeste 7 Sudoeste 0 -- -- 97
2019-01-26 06:00:00 8.8 3 Sudoeste 6 Noroeste 0 -- -- 97
2019-01-26 05:00:00 9 5 Noroeste 14 Noroeste 0 -- -- 97
2019-01-26 04:00:00 8.6 4 Oeste 10 Oeste 0 -- -- 90
2019-01-26 03:00:00 8.8 0 Calma 8 Norte 0 -- -- 91
2019-01-26 02:00:00 8.6 5 Norte 7 Norte 0 -- -- 94
2019-01-26 01:00:00 9 4 Sudoeste 6 Sur 0 -- -- 97
2019-01-26 00:00:00 9.1 4 Oeste 6 Noroeste 0 -- -- 98
2019-01-25 23:00:00 9.3 0 Calma 7 Noroeste 0 -- -- 99
2019-01-25 22:00:00 9.5 4 Noroeste 8 Oeste 0 -- -- 99
2019-01-25 21:00:00 9.2 5 Norte 8 Norte 0 -- -- 98
2019-01-25 20:00:00 9.8 2 Noroeste 5 Sudoeste 0 -- -- 96
2019-01-25 19:00:00 10 2 Noroeste 6 Noroeste 0 -- -- 97
2019-01-25 18:00:00 10.9 3 Norte 9 Noroeste 0 -- -- 96
2019-01-25 17:00:00 11.5 5 Noroeste 13 Norte 0 -- -- 96
2019-01-25 16:00:00 12 5 Noroeste 11 Noroeste 0 -- -- 94
2019-01-25 15:00:00 12.6 6 Norte 12 Norte 0 -- -- 90
2019-01-25 14:00:00 12.7 6 Norte 13 Noroeste 0 -- -- 91
2019-01-25 13:00:00 13.3 8 Norte 13 Noroeste 0.2 -- -- 89
2019-01-25 12:00:00 12.9 5 Noroeste 11 Norte 0 -- -- 95
2019-01-25 11:00:00 11.7 4 Norte 9 Noroeste 0 -- -- 98
2019-01-25 10:00:00 10.8 3 Noroeste 6 Oeste 0 -- -- 100
2019-01-25 09:00:00 10.3 0 Calma 4 Noroeste 0 -- -- 100
2019-01-25 08:00:00 9.7 2 Oeste 6 Norte 0 -- -- 100
2019-01-25 07:00:00 9.8 5 Norte 11 Norte 0 -- -- 100
2019-01-25 06:00:00 10.1 3 Norte 12 Este 0 -- -- 100
2019-01-25 05:00:00 10 4 Este 10 Sur 0 -- -- 100
2019-01-25 04:00:00 9.7 2 Sur 15 Nordeste 0 -- -- 100
2019-01-25 03:00:00 9.8 3 Nordeste 12 Norte 0 -- -- 100
2019-01-25 02:00:00 9.7 0 Calma 16 Norte 0 -- -- 99
2019-01-25 01:00:00 9.9 2 Oeste 9 Norte 0 -- -- 99
2019-01-25 00:00:00 9.8 2 Noroeste 8 Oeste 0 -- -- 99
2019-01-24 23:00:00 9.7 2 Norte 9 Sur 0 -- -- 99
2019-01-24 22:00:00 9.3 3 Oeste 10 Norte 0 -- -- 98
2019-01-24 21:00:00 9.1 3 Oeste 10 Sudoeste 0 -- -- 97
2019-01-24 20:00:00 9 3 Nordeste 12 Nordeste 0 -- -- 95
2019-01-24 19:00:00 9 2 Noroeste 8 Norte 0 -- -- 97
2019-01-24 18:00:00 9.4 5 Norte 14 Norte 0 -- -- 97
2019-01-24 17:00:00 10 6 Norte 14 Noroeste 0 -- -- 96
2019-01-24 16:00:00 11.9 6 Noroeste 12 Noroeste 0 -- -- 88
2019-01-24 15:00:00 10.8 6 Noroeste 14 Norte 0 -- -- 96
2019-01-24 14:00:00 10.8 8 Norte 19 Norte 0 -- -- 93
2019-01-24 13:00:00 11.5 7 Norte 16 Norte 0 -- -- 87
2019-01-24 12:00:00 10.7 5 Norte 17 Norte 0 -- -- 95
2019-01-24 11:00:00 10.1 3 Noroeste 18 Norte 0 -- -- 96
2019-01-24 10:00:00 9.2 5 Norte 22 Norte 0 -- -- 99
2019-01-24 09:00:00 8.7 10 Norte 30 Norte 0 -- -- 100
2019-01-24 08:00:00 8.8 7 Nordeste 20 Norte 0 -- -- 100
2019-01-24 07:00:00 9 6 Nordeste 23 Norte 0 -- -- 99
2019-01-24 06:00:00 9 3 Oeste 19 Noroeste 0 -- -- 99
2019-01-24 05:00:00 8.9 7 Norte 21 Norte 0 -- -- 99
2019-01-24 04:00:00 8.6 8 Norte 19 Nordeste 0 -- -- 99
2019-01-24 03:00:00 8.7 3 Norte 16 Norte 0 -- -- 98
2019-01-24 02:00:00 8.5 3 Noroeste 9 Sudeste 0 -- -- 99
2019-01-24 01:00:00 8.5 6 Sudeste 10 Este 0 -- -- 99
2019-01-24 00:00:00 8.8 8 Este 17 Nordeste 0 -- -- 99